Time,TemperatureF,DewpointF,PressureIn,WindDirection,WindDirectionDegrees,WindSpeedMPH,WindSpeedGustMPH,Humidity,HourlyPrecipIn,Conditions,Clouds,dailyrainin,SolarRadiationWatts/m^2,SoftwareType,DateUTC
2013-05-12 00:21:00,56.0,31.0,-100.00,South,170,6.0,9.0,39,0.00,,,0.00,0.000000,,2013-05-12 06:21:00,
2013-05-12 00:32:00,56.0,31.0,-100.00,South,170,6.0,9.0,39,0.00,,,0.00,0.000000,,2013-05-12 06:32:00,
2013-05-12 00:42:00,56.0,31.0,-100.00,South,170,6.0,9.0,39,0.00,,,0.00,0.000000,,2013-05-12 06:42:00,
2013-05-12 00:51:00,54.0,31.0,-100.00,South,177,6.0,9.0,41,0.00,,,0.00,0.000000,,2013-05-12 06:51:00,
2013-05-12 01:11:00,54.0,31.0,-100.00,South,177,6.0,9.0,41,0.00,,,0.00,0.000000,,2013-05-12 07:11:00,
2013-05-12 01:21:00,54.0,31.0,-100.00,South,177,6.0,9.0,41,0.00,,,0.00,0.000000,,2013-05-12 07:21:00,
2013-05-12 01:32:00,54.0,31.0,-100.00,South,177,6.0,9.0,41,0.00,,,0.00,0.000000,,2013-05-12 07:32:00,
2013-05-12 01:42:00,54.0,31.0,-100.00,South,177,6.0,9.0,41,0.00,,,0.00,0.000000,,2013-05-12 07:42:00,
2013-05-12 01:51:00,54.0,32.0,-100.00,South,174,9.0,13.0,43,0.00,,,0.00,0.000000,,2013-05-12 07:51:00,
2013-05-12 02:11:00,54.0,32.0,-100.00,South,174,9.0,13.0,43,0.00,,,0.00,0.000000,,2013-05-12 08:11:00,
2013-05-12 02:21:00,54.0,32.0,-100.00,South,174,9.0,13.0,43,0.00,,,0.00,0.000000,,2013-05-12 08:21:00,
2013-05-12 02:32:00,54.0,32.0,-100.00,South,174,9.0,13.0,43,0.00,,,0.00,0.000000,,2013-05-12 08:32:00,
2013-05-12 02:41:00,54.0,32.0,-100.00,South,174,9.0,13.0,43,0.00,,,0.00,0.000000,,2013-05-12 08:41:00,
2013-05-12 02:51:00,56.0,33.0,-100.00,East,92,5.0,10.0,42,0.00,,,0.00,0.000000,,2013-05-12 08:51:00,
2013-05-12 03:11:00,56.0,33.0,-100.00,East,92,5.0,10.0,42,0.00,,,0.00,0.000000,,2013-05-12 09:11:00,
2013-05-12 03:21:00,56.0,33.0,-100.00,East,92,5.0,10.0,42,0.00,,,0.00,0.000000,,2013-05-12 09:21:00,
2013-05-12 03:33:00,56.0,33.0,-100.00,East,92,5.0,10.0,42,0.00,,,0.00,0.000000,,2013-05-12 09:33:00,
2013-05-12 03:42:00,56.0,33.0,-100.00,East,92,5.0,10.0,42,0.00,,,0.00,0.000000,,2013-05-12 09:42:00,
2013-05-12 03:51:00,52.0,34.0,-100.00,South,181,4.0,7.0,50,0.00,,,0.00,0.000000,,2013-05-12 09:51:00,
2013-05-12 04:12:00,52.0,34.0,-100.00,South,181,4.0,7.0,50,0.00,,,0.00,0.000000,,2013-05-12 10:12:00,
2013-05-12 04:22:00,52.0,34.0,-100.00,South,181,4.0,7.0,50,0.00,,,0.00,0.000000,,2013-05-12 10:22:00,
2013-05-12 04:33:00,52.0,34.0,-100.00,South,181,4.0,7.0,50,0.00,,,0.00,0.000000,,2013-05-12 10:33:00,
2013-05-12 04:42:00,52.0,34.0,-100.00,South,181,4.0,7.0,50,0.00,,,0.00,0.000000,,2013-05-12 10:42:00,
2013-05-12 04:51:00,52.0,35.0,-100.00,SSE,155,7.0,10.0,53,0.00,,,0.00,0.000000,,2013-05-12 10:51:00,
2013-05-12 05:12:00,52.0,35.0,-100.00,SSE,155,7.0,10.0,53,0.00,,,0.00,0.000000,,2013-05-12 11:12:00,
2013-05-12 05:22:00,52.0,35.0,-100.00,SSE,155,7.0,10.0,53,0.00,,,0.00,0.000000,,2013-05-12 11:22:00,
2013-05-12 05:32:00,52.0,35.0,-100.00,SSE,155,7.0,10.0,53,0.00,,,0.00,0.000000,,2013-05-12 11:32:00,
2013-05-12 05:42:00,52.0,35.0,-100.00,SSE,155,7.0,10.0,53,0.00,,,0.00,0.000000,,2013-05-12 11:42:00,
2013-05-12 05:51:00,51.0,34.0,-100.00,SSE,161,8.0,10.0,52,0.00,,,0.00,1.000000,,2013-05-12 11:51:00,
2013-05-12 06:11:00,51.0,34.0,-100.00,SSE,161,8.0,10.0,52,0.00,,,0.00,1.000000,,2013-05-12 12:11:00,
2013-05-12 06:21:00,51.0,34.0,-100.00,SSE,161,8.0,10.0,52,0.00,,,0.00,1.000000,,2013-05-12 12:21:00,
2013-05-12 06:32:00,51.0,34.0,-100.00,SSE,161,8.0,10.0,52,0.00,,,0.00,1.000000,,2013-05-12 12:32:00,
2013-05-12 06:41:00,51.0,34.0,-100.00,SSE,161,8.0,10.0,52,0.00,,,0.00,1.000000,,2013-05-12 12:41:00,
2013-05-12 06:51:00,54.0,37.0,-100.00,SSE,163,7.0,10.0,52,0.00,,,0.00,62.000000,,2013-05-12 12:51:00,
2013-05-12 07:11:00,54.0,37.0,-100.00,SSE,163,7.0,10.0,52,0.00,,,0.00,62.000000,,2013-05-12 13:11:00,
2013-05-12 07:21:00,54.0,37.0,-100.00,SSE,163,7.0,10.0,52,0.00,,,0.00,62.000000,,2013-05-12 13:21:00,
2013-05-12 07:32:00,54.0,37.0,-100.00,SSE,163,7.0,10.0,52,0.00,,,0.00,62.000000,,2013-05-12 13:32:00,
2013-05-12 07:42:00,54.0,37.0,-100.00,SSE,163,7.0,10.0,52,0.00,,,0.00,62.000000,,2013-05-12 13:42:00,
2013-05-12 07:51:00,58.0,37.0,-100.00,South,181,6.0,10.0,46,0.00,,,0.00,227.000000,,2013-05-12 13:51:00,
2013-05-12 08:21:00,58.0,37.0,-100.00,South,181,6.0,10.0,46,0.00,,,0.00,227.000000,,2013-05-12 14:21:00,
2013-05-12 08:32:00,58.0,37.0,-100.00,South,181,6.0,10.0,46,0.00,,,0.00,227.000000,,2013-05-12 14:32:00,
2013-05-12 08:42:00,58.0,37.0,-100.00,South,181,6.0,10.0,46,0.00,,,0.00,227.000000,,2013-05-12 14:42:00,
2013-05-12 08:51:00,67.0,39.0,-100.00,South,181,7.0,12.0,36,0.00,,,0.00,412.000000,,2013-05-12 14:51:00,
2013-05-12 09:21:00,67.0,39.0,-100.00,South,181,7.0,12.0,36,0.00,,,0.00,412.000000,,2013-05-12 15:21:00,
2013-05-12 09:34:00,67.0,39.0,-100.00,South,181,7.0,12.0,36,0.00,,,0.00,412.000000,,2013-05-12 15:34:00,
2013-05-12 09:42:00,67.0,39.0,-100.00,South,181,7.0,12.0,36,0.00,,,0.00,412.000000,,2013-05-12 15:42:00,
2013-05-12 09:51:00,73.0,36.0,-100.00,West,265,8.0,14.0,26,0.00,,,0.00,563.000000,,2013-05-12 15:51:00,
2013-05-12 10:12:00,73.0,36.0,-100.00,West,265,8.0,14.0,26,0.00,,,0.00,563.000000,,2013-05-12 16:12:00,
2013-05-12 10:23:00,73.0,36.0,-100.00,West,265,8.0,14.0,26,0.00,,,0.00,563.000000,,2013-05-12 16:23:00,
2013-05-12 10:33:00,73.0,36.0,-100.00,West,265,8.0,14.0,26,0.00,,,0.00,563.000000,,2013-05-12 16:33:00,
2013-05-12 10:42:00,73.0,36.0,-100.00,West,265,8.0,14.0,26,0.00,,,0.00,563.000000,,2013-05-12 16:42:00,
2013-05-12 10:51:00,72.0,34.0,-100.00,NNW,327,17.0,24.0,25,0.00,,,0.00,713.000000,,2013-05-12 16:51:00,
2013-05-12 11:12:00,72.0,34.0,-100.00,NNW,327,17.0,24.0,25,0.00,,,0.00,713.000000,,2013-05-12 17:12:00,
2013-05-12 11:22:00,72.0,34.0,-100.00,NNW,327,17.0,24.0,25,0.00,,,0.00,713.000000,,2013-05-12 17:22:00,
2013-05-12 11:32:00,72.0,34.0,-100.00,NNW,327,17.0,24.0,25,0.00,,,0.00,713.000000,,2013-05-12 17:32:00,
2013-05-12 11:42:00,72.0,34.0,-100.00,NNW,327,17.0,24.0,25,0.00,,,0.00,713.000000,,2013-05-12 17:42:00,
2013-05-12 11:51:00,77.0,37.0,-100.00,NW,320,9.0,20.0,24,0.00,,,0.00,849.000000,,2013-05-12 17:51:00,
2013-05-12 12:12:00,77.0,37.0,-100.00,NW,320,9.0,20.0,24,0.00,,,0.00,849.000000,,2013-05-12 18:12:00,
2013-05-12 12:22:00,77.0,37.0,-100.00,NW,320,9.0,20.0,24,0.00,,,0.00,849.000000,,2013-05-12 18:22:00,
2013-05-12 12:32:00,77.0,37.0,-100.00,NW,320,9.0,20.0,24,0.00,,,0.00,849.000000,,2013-05-12 18:32:00,
2013-05-12 12:42:00,77.0,37.0,-100.00,NW,320,9.0,20.0,24,0.00,,,0.00,849.000000,,2013-05-12 18:42:00,
2013-05-12 12:51:00,77.0,36.0,-100.00,NNW,344,10.0,23.0,23,0.00,,,0.00,810.000000,,2013-05-12 18:51:00,
2013-05-12 13:11:00,77.0,36.0,-100.00,NNW,344,10.0,23.0,23,0.00,,,0.00,810.000000,,2013-05-12 19:11:00,
2013-05-12 13:21:00,77.0,36.0,-100.00,NNW,344,10.0,23.0,23,0.00,,,0.00,810.000000,,2013-05-12 19:21:00,
2013-05-12 13:32:00,77.0,36.0,-100.00,NNW,344,10.0,23.0,23,0.00,,,0.00,810.000000,,2013-05-12 19:32:00,
2013-05-12 13:42:00,77.0,36.0,-100.00,NNW,344,10.0,23.0,23,0.00,,,0.00,810.000000,,2013-05-12 19:42:00,
2013-05-12 13:51:00,78.0,35.0,-100.00,NNW,344,10.0,23.0,21,0.00,,,0.00,944.000000,,2013-05-12 19:51:00,
2013-05-12 14:11:00,78.0,35.0,-100.00,NNW,344,10.0,23.0,21,0.00,,,0.00,944.000000,,2013-05-12 20:11:00,
2013-05-12 14:21:00,78.0,35.0,-100.00,NNW,344,10.0,23.0,21,0.00,,,0.00,944.000000,,2013-05-12 20:21:00,
2013-05-12 14:32:00,78.0,35.0,-100.00,NNW,344,10.0,23.0,21,0.00,,,0.00,944.000000,,2013-05-12 20:32:00,
2013-05-12 14:42:00,78.0,35.0,-100.00,NNW,344,10.0,23.0,21,0.00,,,0.00,944.000000,,2013-05-12 20:42:00,
2013-05-12 14:51:00,79.0,34.0,-100.00,NW,325,11.0,24.0,20,0.00,,,0.00,847.000000,,2013-05-12 20:51:00,
2013-05-12 15:11:00,79.0,34.0,-100.00,NW,325,11.0,24.0,20,0.00,,,0.00,847.000000,,2013-05-12 21:11:00,
2013-05-12 15:21:00,79.0,34.0,-100.00,NW,325,11.0,24.0,20,0.00,,,0.00,847.000000,,2013-05-12 21:21:00,
2013-05-12 15:33:00,79.0,34.0,-100.00,NW,325,11.0,24.0,20,0.00,,,0.00,847.000000,,2013-05-12 21:33:00,
2013-05-12 15:42:00,79.0,34.0,-100.00,NW,325,11.0,24.0,20,0.00,,,0.00,847.000000,,2013-05-12 21:42:00,
2013-05-12 15:51:00,79.0,33.0,-100.00,NW,322,8.0,30.0,19,0.00,,,0.00,703.000000,,2013-05-12 21:51:00,
2013-05-12 16:23:00,79.0,33.0,-100.00,NW,322,8.0,30.0,19,0.00,,,0.00,703.000000,,2013-05-12 22:23:00,
2013-05-12 16:33:00,79.0,33.0,-100.00,NW,322,8.0,30.0,19,0.00,,,0.00,703.000000,,2013-05-12 22:33:00,
2013-05-12 16:42:00,79.0,33.0,-100.00,NW,322,8.0,30.0,19,0.00,,,0.00,703.000000,,2013-05-12 22:42:00,
2013-05-12 16:51:00,79.0,33.0,-100.00,NNW,331,15.0,24.0,19,0.00,,,0.00,501.000000,,2013-05-12 22:51:00,
2013-05-12 17:12:00,79.0,33.0,-100.00,NNW,331,15.0,24.0,19,0.00,,,0.00,501.000000,,2013-05-12 23:12:00,
2013-05-12 17:22:00,79.0,33.0,-100.00,NNW,331,15.0,24.0,19,0.00,,,0.00,501.000000,,2013-05-12 23:22:00,
2013-05-12 17:32:00,79.0,33.0,-100.00,NNW,331,15.0,24.0,19,0.00,,,0.00,501.000000,,2013-05-12 23:32:00,
2013-05-12 17:42:00,79.0,33.0,-100.00,NNW,331,15.0,24.0,19,0.00,,,0.00,501.000000,,2013-05-12 23:42:00,
2013-05-12 17:51:00,79.0,32.0,-100.00,NW,326,12.0,32.0,18,0.00,,,0.00,455.000000,,2013-05-12 23:51:00,
2013-05-12 18:21:00,79.0,32.0,-100.00,NW,326,12.0,32.0,18,0.00,,,0.00,455.000000,,2013-05-13 00:21:00,
2013-05-12 18:32:00,79.0,32.0,-100.00,NW,326,12.0,32.0,18,0.00,,,0.00,455.000000,,2013-05-13 00:32:00,
2013-05-12 18:42:00,79.0,32.0,-100.00,NW,326,12.0,32.0,18,0.00,,,0.00,455.000000,,2013-05-13 00:42:00,
2013-05-12 18:51:00,79.0,33.0,-100.00,NW,325,6.0,20.0,19,0.00,,,0.00,250.000000,,2013-05-13 00:51:00,
2013-05-12 19:11:00,79.0,33.0,-100.00,NW,325,6.0,20.0,19,0.00,,,0.00,250.000000,,2013-05-13 01:11:00,
2013-05-12 19:22:00,79.0,33.0,-100.00,NW,325,6.0,20.0,19,0.00,,,0.00,250.000000,,2013-05-13 01:22:00,
2013-05-12 19:31:00,79.0,33.0,-100.00,NW,325,6.0,20.0,19,0.00,,,0.00,250.000000,,2013-05-13 01:31:00,
2013-05-12 19:42:00,79.0,33.0,-100.00,NW,325,6.0,20.0,19,0.00,,,0.00,250.000000,,2013-05-13 01:42:00,
2013-05-12 19:51:00,75.0,32.0,-100.00,West,270,2.0,8.0,21,0.00,,,0.00,62.000000,,2013-05-13 01:51:00,
2013-05-12 20:11:00,75.0,32.0,-100.00,West,270,2.0,8.0,21,0.00,,,0.00,62.000000,,2013-05-13 02:11:00,
2013-05-12 20:21:00,75.0,32.0,-100.00,West,270,2.0,8.0,21,0.00,,,0.00,62.000000,,2013-05-13 02:21:00,
2013-05-12 20:32:00,75.0,32.0,-100.00,West,270,2.0,8.0,21,0.00,,,0.00,62.000000,,2013-05-13 02:32:00,
2013-05-12 20:41:00,75.0,32.0,-100.00,West,270,2.0,8.0,21,0.00,,,0.00,62.000000,,2013-05-13 02:41:00,
2013-05-12 20:51:00,72.0,37.0,-100.00,South,177,4.0,7.0,28,0.00,,,0.00,4.000000,,2013-05-13 02:51:00,
2013-05-12 21:11:00,72.0,37.0,-100.00,South,177,4.0,7.0,28,0.00,,,0.00,4.000000,,2013-05-13 03:11:00,
2013-05-12 21:21:00,72.0,37.0,-100.00,South,177,4.0,7.0,28,0.00,,,0.00,4.000000,,2013-05-13 03:21:00,
2013-05-12 21:32:00,72.0,37.0,-100.00,South,177,4.0,7.0,28,0.00,,,0.00,4.000000,,2013-05-13 03:32:00,
2013-05-12 21:42:00,72.0,37.0,-100.00,South,177,4.0,7.0,28,0.00,,,0.00,4.000000,,2013-05-13 03:42:00,
2013-05-12 21:51:00,70.0,35.0,-100.00,South,173,4.0,8.0,28,0.00,,,0.00,0.000000,,2013-05-13 03:51:00,
2013-05-12 22:12:00,70.0,35.0,-100.00,South,173,4.0,8.0,28,0.00,,,0.00,0.000000,,2013-05-13 04:12:00,
2013-05-12 22:23:00,70.0,35.0,-100.00,South,173,4.0,8.0,28,0.00,,,0.00,0.000000,,2013-05-13 04:23:00,
2013-05-12 22:32:00,70.0,35.0,-100.00,South,173,4.0,8.0,28,0.00,,,0.00,0.000000,,2013-05-13 04:32:00,
2013-05-12 22:42:00,70.0,35.0,-100.00,South,173,4.0,8.0,28,0.00,,,0.00,0.000000,,2013-05-13 04:42:00,
2013-05-12 22:51:00,69.0,35.0,-100.00,SW,215,6.0,11.0,28,0.00,,,0.00,0.000000,,2013-05-13 04:51:00,
2013-05-12 23:12:00,69.0,35.0,-100.00,SW,215,6.0,11.0,28,0.00,,,0.00,0.000000,,2013-05-13 05:12:00,
2013-05-12 23:21:00,69.0,35.0,-100.00,SW,215,6.0,11.0,28,0.00,,,0.00,0.000000,,2013-05-13 05:21:00,
2013-05-12 23:32:00,69.0,35.0,-100.00,SW,215,6.0,11.0,28,0.00,,,0.00,0.000000,,2013-05-13 05:32:00,
2013-05-12 23:42:00,69.0,35.0,-100.00,SW,215,6.0,11.0,28,0.00,,,0.00,0.000000,,2013-05-13 05:42:00,
2013-05-12 23:51:00,67.0,35.0,-100.00,SSW,203,6.0,8.0,31,0.00,,,0.00,0.000000,,2013-05-13 05:51:00,